Time;durP1;ratioP1;P1;durP2;ratioP2;P2;SDS_P1;SDS_P2;PMS_P1;PMS_P2;Temp;Humidity;BMP_temperature;BMP_pressure;BME280_temperature;BME280_humidity;BME280_pressure;Samples;Min_cycle;Max_cycle;Signal;HPM_P1;HPM_P2
2022/10/28 00:00:13;;;;;;;8.15;6.13;;;;;;;11.14;64.99;96136.66;5096768;28;20181;-70
2022/10/28 00:02:40;;;;;;;6.25;5.65;;;;;;;11.07;64.67;96134.44;5096768;28;20181;-70
2022/10/28 00:05:07;;;;;;;7.32;5.80;;;;;;;11.04;64.57;96139.81;5078679;28;20612;-70
2022/10/28 00:07:35;;;;;;;7.13;5.28;;;;;;;11.01;64.93;96138.50;5078938;28;20192;-70
2022/10/28 00:10:02;;;;;;;6.43;5.28;;;;;;;10.99;65.09;96132.50;5096232;28;20196;-70
2022/10/28 00:12:30;;;;;;;7.75;5.50;;;;;;;10.94;64.96;96134.63;5078990;28;20192;-70
2022/10/28 00:14:57;;;;;;;5.85;5.30;;;;;;;10.84;65.33;96135.78;5078886;28;20189;-70
2022/10/28 00:17:24;;;;;;;5.68;5.00;;;;;;;10.78;65.08;96135.16;5078133;28;20207;-70
2022/10/28 00:19:50;;;;;;;6.18;5.13;;;;;;;10.76;65.03;96139.38;5095955;28;20196;-70
2022/10/28 00:22:17;;;;;;;7.47;5.53;;;;;;;10.74;65.37;96134.16;5078641;28;20188;-70
2022/10/28 00:24:44;;;;;;;5.72;5.22;;;;;;;10.76;65.61;96128.34;5078457;28;20253;-70
2022/10/28 00:27:11;;;;;;;5.40;4.90;;;;;;;10.77;65.28;96128.00;5096378;28;20185;-70
2022/10/28 00:29:39;;;;;;;6.55;5.53;;;;;;;10.78;65.43;96123.28;5078808;28;20196;-70
2022/10/28 00:32:05;;;;;;;6.22;5.15;;;;;;;10.79;65.75;96130.44;5078388;28;20212;-70
2022/10/28 00:34:32;;;;;;;6.22;5.25;;;;;;;10.81;65.73;96133.69;5096282;28;20195;-70
2022/10/28 00:36:59;;;;;;;5.63;5.13;;;;;;;10.79;65.29;96133.22;5078278;28;20557;-70
2022/10/28 00:39:35;;;;;;;6.18;5.30;;;;;;;10.75;65.43;96127.53;5154143;27;21068;-69
2022/10/28 00:42:02;;;;;;;6.05;5.47;;;;;;;10.75;65.57;96124.78;5154214;27;20182;-69
2022/10/28 00:44:55;;;;;;;7.07;5.30;;;;;;;10.74;65.60;96130.59;5154363;27;20182;-69
2022/10/28 00:47:29;;;;;;;6.75;5.32;;;;;;;10.69;65.67;96130.78;5154171;27;20241;-69
2022/10/28 00:50:08;;;;;;;5.60;5.10;;;;;;;10.63;66.02;96130.13;5153897;27;20190;-69
2022/10/28 00:52:35;;;;;;;7.03;5.50;;;;;;;10.59;65.60;96132.75;5135793;27;20209;-69
2022/10/28 00:55:03;;;;;;;5.78;5.28;;;;;;;10.58;65.77;96133.88;5153762;27;20202;-69
2022/10/28 00:57:35;;;;;;;7.60;4.82;;;;;;;10.55;66.28;96133.72;5135795;27;20222;-69
2022/10/28 01:00:04;;;;;;;6.47;5.07;;;;;;;10.55;65.85;96130.97;5152982;27;20201;-69
2022/10/28 01:02:32;;;;;;;7.93;5.28;;;;;;;10.52;65.80;96132.44;5135441;27;20723;-69
2022/10/28 01:04:59;;;;;;;6.53;5.40;;;;;;;10.54;65.84;96134.88;5153822;27;20183;-69
2022/10/28 01:07:26;;;;;;;5.25;4.75;;;;;;;10.52;65.87;96132.44;5153932;27;20209;-69
2022/10/28 01:09:53;;;;;;;6.03;5.40;;;;;;;10.53;66.21;96127.72;5152578;27;20199;-69
2022/10/28 01:12:26;;;;;;;6.13;5.25;;;;;;;10.49;65.95;96130.31;5153697;27;20187;-70
2022/10/28 01:15:01;;;;;;;6.13;5.03;;;;;;;10.47;65.94;96132.59;5135860;27;20190;-69
2022/10/28 01:17:35;;;;;;;7.18;4.90;;;;;;;10.42;65.85;96135.53;5135343;27;20602;-69
2022/10/28 01:20:36;;;;;;;5.38;4.88;;;;;;;10.36;65.81;96129.38;5153534;27;20191;-69
2022/10/28 01:23:09;;;;;;;5.85;5.03;;;;;;;10.35;66.35;96127.75;5121268;27;20209;-69
2022/10/28 01:26:09;;;;;;;5.68;5.13;;;;;;;10.39;66.18;96125.16;5135288;27;20225;-69
2022/10/28 01:29:01;;;;;;;5.38;4.88;;;;;;;10.41;66.44;96133.91;5153447;27;20182;-69
2022/10/28 01:31:36;;;;;;;5.70;5.10;;;;;;;10.42;66.11;96127.28;5153385;27;20202;-69
2022/10/28 01:34:09;;;;;;;6.30;5.38;;;;;;;10.41;66.37;96131.16;5135076;27;20194;-69
2022/10/28 01:36:40;;;;;;;6.15;4.80;;;;;;;10.41;66.49;96131.16;5153433;27;20517;-69
2022/10/28 01:39:14;;;;;;;6.00;5.32;;;;;;;10.33;66.29;96137.50;5131006;28;20250;-69
2022/10/28 01:41:48;;;;;;;6.93;5.35;;;;;;;10.20;66.17;96128.19;5131593;28;20195;-69
2022/10/28 01:44:22;;;;;;;5.97;5.38;;;;;;;10.17;66.16;96133.56;5131466;28;20191;-69
2022/10/28 01:46:54;;;;;;;7.30;5.93;;;;;;;10.16;66.39;96138.25;5132378;27;20187;-69
2022/10/28 01:49:25;;;;;;;8.48;5.88;;;;;;;10.12;66.44;96140.84;5127349;27;20179;-69
2022/10/28 01:51:54;;;;;;;7.35;5.75;;;;;;;10.10;66.55;96134.06;5117626;28;20199;-69
2022/10/28 01:54:25;;;;;;;6.43;5.82;;;;;;;10.12;66.78;96145.56;5117615;28;20203;-69
2022/10/28 01:56:53;;;;;;;7.57;6.28;;;;;;;10.12;66.82;96134.53;5117995;28;20603;-70
2022/10/28 01:59:22;;;;;;;8.02;6.32;;;;;;;10.15;66.73;96142.16;5118095;28;20219;-69
2022/10/28 02:01:50;;;;;;;10.90;6.30;;;;;;;10.12;66.57;96140.03;5117234;28;20184;-69
2022/10/28 02:04:17;;;;;;;9.00;6.68;;;;;;;10.08;66.75;96136.31;5117474;28;20563;-69
2022/10/28 02:06:46;;;;;;;7.35;6.65;;;;;;;10.07;66.67;96140.22;5117957;28;20188;-69
2022/10/28 02:09:20;;;;;;;8.95;7.30;;;;;;;10.05;66.72;96140.53;5134545;27;20203;-69
2022/10/28 02:11:57;;;;;;;8.13;7.00;;;;;;;10.03;67.00;96144.75;5117360;28;20252;-69
2022/10/28 02:14:36;;;;;;;8.40;7.50;;;;;;;10.01;67.04;96145.06;5118160;28;20211;-69
2022/10/28 02:17:12;;;;;;;8.50;7.60;;;;;;;9.99;67.06;96141.84;5117817;28;20183;-69
2022/10/28 02:19:44;;;;;;;9.18;8.27;;;;;;;9.98;67.05;96148.47;5117926;28;20203;-69
2022/10/28 02:22:17;;;;;;;10.82;8.15;;;;;;;9.98;67.12;96145.69;5117986;28;20184;-69
2022/10/28 02:24:50;;;;;;;9.45;8.35;;;;;;;9.98;67.19;96131.13;5117062;28;20200;-69
2022/10/28 02:27:20;;;;;;;9.75;8.43;;;;;;;9.96;66.84;96136.16;5117661;28;20607;-69
2022/10/28 02:29:52;;;;;;;10.00;8.70;;;;;;;9.94;67.09;96139.22;5117185;28;20195;-69
2022/10/28 02:32:23;;;;;;;9.73;8.70;;;;;;;9.90;67.23;96138.25;5116949;28;20195;-69
2022/10/28 02:34:54;;;;;;;9.93;8.95;;;;;;;9.88;67.19;96144.09;5117068;28;20200;-69
2022/10/28 02:37:22;;;;;;;9.05;8.07;;;;;;;9.88;67.48;96140.53;5119244;27;20171;-69
2022/10/28 02:39:52;;;;;;;9.43;7.28;;;;;;;9.87;67.37;96144.41;5120066;27;20211;-69
2022/10/28 02:42:22;;;;;;;9.18;6.88;;;;;;;9.85;67.23;96149.44;5120082;27;20194;-70
2022/10/28 02:44:52;;;;;;;9.57;8.60;;;;;;;9.80;67.54;96150.41;5138121;27;20191;-69
2022/10/28 02:47:24;;;;;;;9.35;8.48;;;;;;;9.74;67.87;96151.69;5120193;27;20199;-69
2022/10/28 02:49:55;;;;;;;9.98;8.13;;;;;;;9.73;67.83;96158.34;5120000;27;20240;-69
2022/10/28 02:52:23;;;;;;;9.27;8.38;;;;;;;9.70;67.56;96147.94;5119948;27;20259;-69
2022/10/28 02:54:53;;;;;;;9.57;8.35;;;;;;;9.71;67.56;96155.06;5120069;27;20270;-69
2022/10/28 02:57:23;;;;;;;10.02;8.05;;;;;;;9.70;67.52;96158.97;5137996;27;20187;-69
2022/10/28 02:59:54;;;;;;;9.15;8.15;;;;;;;9.67;67.41;96156.03;5137534;27;20206;-70
2022/10/28 03:02:22;;;;;;;10.57;8.05;;;;;;;9.58;67.27;96156.81;5118773;27;20207;-69
2022/10/28 03:04:49;;;;;;;10.52;7.78;;;;;;;9.54;67.55;96152.28;5137864;27;20205;-69
2022/10/28 03:07:16;;;;;;;9.10;8.05;;;;;;;9.51;67.57;96156.47;5137401;27;20583;-69
2022/10/28 03:09:42;;;;;;;8.60;7.80;;;;;;;9.45;67.72;96154.22;5119650;27;20191;-70
2022/10/28 03:12:09;;;;;;;8.70;7.80;;;;;;;9.42;67.39;96146.56;5137229;27;20198;-70
2022/10/28 03:14:36;;;;;;;10.40;7.50;;;;;;;9.43;67.52;96151.75;5137444;27;20183;-70
2022/10/28 03:17:03;;;;;;;10.13;8.10;;;;;;;9.43;67.57;96153.69;5119651;27;20205;-69
2022/10/28 03:19:31;;;;;;;9.00;7.57;;;;;;;9.42;67.83;96155.66;5137425;27;20207;-69
2022/10/28 03:21:58;;;;;;;9.80;7.10;;;;;;;9.38;67.70;96144.47;5136966;27;20607;-70
2022/10/28 03:24:25;;;;;;;8.32;7.45;;;;;;;9.38;67.74;96149.16;5137092;27;20191;-70
2022/10/28 03:26:52;;;;;;;9.73;6.85;;;;;;;9.37;67.83;96142.84;5137350;27;20259;-70
2022/10/28 03:29:18;;;;;;;8.98;6.35;;;;;;;9.36;67.60;96154.16;5118904;27;20195;-70
2022/10/28 03:31:45;;;;;;;8.57;6.78;;;;;;;9.34;67.74;96154.50;5137328;27;20229;-69
2022/10/28 03:34:12;;;;;;;9.82;6.00;;;;;;;9.32;67.68;96153.97;5137122;27;20184;-69
2022/10/28 03:36:40;;;;;;;8.55;6.88;;;;;;;9.31;67.88;96146.88;5136869;27;20517;-69
2022/10/28 03:39:07;;;;;;;10.50;6.78;;;;;;;9.34;68.06;96148.19;5135695;27;20234;-69
2022/10/28 03:41:34;;;;;;;7.85;7.05;;;;;;;9.34;67.74;96150.94;5137068;27;20498;-69
2022/10/28 03:44:00;;;;;;;7.50;6.70;;;;;;;9.33;67.92;96144.63;5136027;27;20520;-69
2022/10/28 03:46:28;;;;;;;8.02;6.57;;;;;;;9.29;67.64;96165.63;5136904;27;20202;-69
2022/10/28 03:48:54;;;;;;;9.27;7.03;;;;;;;9.25;68.08;96161.88;5136061;27;20186;-69
2022/10/28 03:51:21;;;;;;;9.15;6.70;;;;;;;9.19;67.45;96162.34;5136467;27;20202;-69
2022/10/28 03:53:49;;;;;;;9.52;6.90;;;;;;;9.16;67.95;96159.13;5136666;27;20191;-69
2022/10/28 03:56:17;;;;;;;8.10;7.30;;;;;;;9.16;67.63;96153.59;5135771;27;20196;-69
2022/10/28 03:58:44;;;;;;;8.77;6.70;;;;;;;9.13;67.80;96157.00;5136956;27;20219;-70
2022/10/28 04:01:11;;;;;;;9.52;7.15;;;;;;;9.12;67.85;96154.56;5136453;27;20603;-70
2022/10/28 04:03:38;;;;;;;9.73;7.10;;;;;;;9.11;68.14;96159.25;5136617;27;20194;-69
2022/10/28 04:06:05;;;;;;;9.85;7.15;;;;;;;9.13;68.35;96165.25;5135593;27;20595;-69
2022/10/28 04:08:32;;;;;;;12.55;7.63;;;;;;;9.12;68.30;96160.06;5135605;27;20251;-69
2022/10/28 04:11:00;;;;;;;10.10;7.90;;;;;;;9.09;68.20;96160.69;5136496;27;20194;-69
2022/10/28 04:13:27;;;;;;;11.38;8.07;;;;;;;9.03;68.14;96160.00;5135351;27;20641;-69
2022/10/28 04:15:54;;;;;;;11.65;9.00;;;;;;;9.00;67.99;96168.91;5135535;27;20187;-69
2022/10/28 04:18:20;;;;;;;12.35;8.13;;;;;;;9.00;67.89;96168.09;5136367;27;20194;-69
2022/10/28 04:20:47;;;;;;;13.10;8.35;;;;;;;8.96;68.16;96162.41;5135604;27;20206;-69
2022/10/28 04:23:15;;;;;;;12.32;7.45;;;;;;;8.97;68.45;96165.97;5135579;27;20190;-71
2022/10/28 04:25:42;;;;;;;13.88;8.15;;;;;;;8.98;68.73;96168.41;5136342;27;20190;-69
2022/10/28 04:28:10;;;;;;;11.52;7.60;;;;;;;8.98;68.66;96167.63;5135358;27;20207;-69
2022/10/28 04:30:37;;;;;;;6.93;6.20;;;;;;;9.02;68.58;96166.66;5135585;27;20271;-69
2022/10/28 04:33:04;;;;;;;7.70;5.97;;;;;;;9.03;68.71;96175.72;5135243;27;20183;-69
2022/10/28 04:35:31;;;;;;;9.65;7.07;;;;;;;9.07;69.07;96163.75;5135512;27;20224;-69
2022/10/28 04:37:57;;;;;;;8.82;6.45;;;;;;;9.11;68.77;96167.53;5136066;28;20243;-69
2022/10/28 04:40:24;;;;;;;7.22;6.50;;;;;;;9.13;68.67;96158.94;5136263;28;20211;-69
2022/10/28 04:42:51;;;;;;;8.70;6.40;;;;;;;9.13;68.99;96165.25;5135386;28;20209;-69
2022/10/28 04:45:19;;;;;;;7.35;6.50;;;;;;;9.13;68.89;96167.19;5136181;28;20179;-69
2022/10/28 04:47:46;;;;;;;12.82;8.10;;;;;;;9.13;69.05;96170.75;5134942;28;20572;-69
2022/10/28 04:50:13;;;;;;;11.43;7.50;;;;;;;9.06;68.78;96164.88;5136234;28;20179;-68
2022/10/28 04:52:40;;;;;;;9.32;7.40;;;;;;;9.02;69.21;96161.16;5136284;28;20260;-69
2022/10/28 04:55:07;;;;;;;9.43;7.40;;;;;;;9.02;69.28;96163.09;5135641;28;20606;-69
2022/10/28 04:57:34;;;;;;;10.02;6.65;;;;;;;9.02;69.49;96161.16;5135516;27;20210;-70
2022/10/28 05:00:00;;;;;;;8.63;6.32;;;;;;;9.04;69.18;96167.16;5134696;28;20206;-70
2022/10/28 05:02:28;;;;;;;10.60;6.25;;;;;;;9.01;68.81;96172.50;5135216;28;20203;-70
2022/10/28 05:04:59;;;;;;;8.55;6.18;;;;;;;9.02;68.55;96163.09;5135177;28;20199;-70
2022/10/28 05:07:25;;;;;;;9.00;5.72;;;;;;;9.01;68.82;96167.78;5134634;28;20611;-70
2022/10/28 05:09:52;;;;;;;8.75;6.40;;;;;;;9.01;68.87;96161.47;5135656;28;20661;-70
2022/10/28 05:12:19;;;;;;;13.25;6.63;;;;;;;9.00;68.73;96166.16;5134877;28;20191;-70
2022/10/28 05:14:45;;;;;;;10.57;6.57;;;;;;;8.98;68.86;96167.63;5135632;28;20295;-70
2022/10/28 05:17:12;;;;;;;10.70;5.97;;;;;;;8.99;69.08;96171.97;5135902;28;20186;-70
2022/10/28 05:19:44;;;;;;;8.80;6.35;;;;;;;9.00;68.84;96168.91;5134282;28;20233;-70
2022/10/28 05:22:10;;;;;;;9.85;5.95;;;;;;;9.01;68.99;96173.28;5134769;28;20199;-70
2022/10/28 05:24:37;;;;;;;9.57;6.32;;;;;;;9.04;69.56;96183.69;5136226;27;20190;-70
2022/10/28 05:27:04;;;;;;;13.75;8.00;;;;;;;9.04;69.02;96182.84;5139181;27;20202;-70
2022/10/28 05:29:31;;;;;;;11.00;8.38;;;;;;;9.04;69.27;96183.69;5138587;27;20209;-69
2022/10/28 05:31:57;;;;;;;16.38;8.30;;;;;;;9.03;69.25;96187.53;5138405;27;20191;-69
2022/10/28 05:34:24;;;;;;;18.05;9.07;;;;;;;9.01;69.00;96183.50;5138756;27;20183;-70
2022/10/28 05:36:52;;;;;;;14.20;8.82;;;;;;;8.96;68.83;96192.66;5139197;27;20187;-69
2022/10/28 05:39:19;;;;;;;18.83;8.85;;;;;;;8.94;69.06;96186.69;5137965;27;20242;-70
2022/10/28 05:41:46;;;;;;;16.52;8.02;;;;;;;8.92;68.94;96191.69;5139496;27;20206;-69
2022/10/28 05:44:13;;;;;;;13.10;7.85;;;;;;;8.92;69.02;96202.69;5138641;27;20206;-70
2022/10/28 05:46:39;;;;;;;15.57;8.32;;;;;;;8.96;69.01;96198.19;5139566;27;20193;-71
2022/10/28 05:49:06;;;;;;;17.60;8.45;;;;;;;8.99;68.73;96205.81;5138831;27;20207;-70
2022/10/28 05:51:33;;;;;;;12.68;7.93;;;;;;;9.01;69.36;96200.00;5138638;27;20206;-71
2022/10/28 05:54:03;;;;;;;14.30;8.35;;;;;;;9.05;69.16;96195.50;5139020;27;20183;-70
2022/10/28 05:56:30;;;;;;;16.05;8.35;;;;;;;9.08;69.10;96198.44;5139131;27;20202;-69
2022/10/28 05:58:57;;;;;;;12.20;8.10;;;;;;;9.14;69.28;96208.16;5138417;27;20195;-70
2022/10/28 06:01:24;;;;;;;13.07;8.23;;;;;;;9.19;69.18;96201.72;5138937;27;20187;-71
2022/10/28 06:03:51;;;;;;;15.48;8.43;;;;;;;9.21;69.27;96204.13;5138378;27;20318;-72
2022/10/28 06:06:18;;;;;;;13.50;8.75;;;;;;;9.23;69.17;96204.66;5138656;27;20187;-70
2022/10/28 06:08:44;;;;;;;13.13;9.90;;;;;;;9.26;69.26;96207.59;5139051;27;20189;-71
2022/10/28 06:11:13;;;;;;;13.52;9.75;;;;;;;9.36;69.33;96209.22;5138958;27;20183;-70
2022/10/28 06:13:39;;;;;;;13.82;12.00;;;;;;;9.40;69.40;96213.81;5138124;27;20214;-71
2022/10/28 06:16:06;;;;;;;13.23;10.35;;;;;;;9.45;69.72;96214.78;5137877;27;20195;-70
2022/10/28 06:18:33;;;;;;;11.70;9.43;;;;;;;9.55;70.01;96220.81;5138614;27;20199;-70
2022/10/28 06:21:00;;;;;;;10.10;8.35;;;;;;;9.67;69.99;96230.44;5138212;27;20200;-70
2022/10/28 06:23:28;;;;;;;9.25;7.50;;;;;;;9.76;69.84;96231.25;5138808;27;20187;-70
2022/10/28 06:25:57;;;;;;;8.10;6.75;;;;;;;9.84;69.71;96233.22;5138748;27;20187;-69
2022/10/28 06:28:25;;;;;;;7.88;6.72;;;;;;;9.97;69.46;96232.28;5138734;27;20191;-70
2022/10/28 06:30:52;;;;;;;11.55;8.20;;;;;;;10.06;69.09;96233.13;5137647;27;20545;-72
2022/10/28 06:33:19;;;;;;;8.57;6.80;;;;;;;10.21;68.84;96231.06;5137823;27;20203;-71
2022/10/28 06:35:46;;;;;;;7.72;6.60;;;;;;;10.34;68.61;96239.19;5138560;27;20183;-71
2022/10/28 06:38:13;;;;;;;7.47;6.28;;;;;;;10.44;68.30;96240.00;5137977;27;20246;-71
2022/10/28 06:40:39;;;;;;;7.00;6.30;;;;;;;10.52;68.13;96236.44;5138105;27;20199;-70
2022/10/28 06:43:08;;;;;;;11.10;8.00;;;;;;;10.57;67.64;96234.34;5137561;27;20199;-70
2022/10/28 06:45:36;;;;;;;15.93;12.73;;;;;;;10.69;67.96;96228.16;5137604;27;20195;-70
2022/10/28 06:48:05;;;;;;;14.75;13.25;;;;;;;10.84;67.58;96227.66;5137354;27;20191;-71
2022/10/28 06:50:33;;;;;;;15.10;13.50;;;;;;;10.98;67.25;96226.69;5137419;27;20203;-70
2022/10/28 06:53:00;;;;;;;13.63;12.18;;;;;;;11.07;67.14;96224.69;5137455;27;20195;-69
2022/10/28 06:55:27;;;;;;;13.18;11.85;;;;;;;11.17;66.82;96224.38;5137309;27;20187;-69
2022/10/28 06:57:56;;;;;;;15.00;12.40;;;;;;;11.28;66.56;96228.38;5137098;27;20198;-68
2022/10/28 07:00:23;;;;;;;13.60;12.30;;;;;;;11.41;66.33;96223.81;5136303;27;20723;-68
2022/10/28 07:02:52;;;;;;;13.73;11.70;;;;;;;11.52;66.21;96225.06;5136538;27;20198;-68
2022/10/28 07:05:19;;;;;;;11.55;10.43;;;;;;;11.63;66.09;96225.53;5137886;27;20187;-69
2022/10/28 07:07:46;;;;;;;10.95;9.85;;;;;;;11.70;65.57;96228.56;5137795;27;20259;-68
2022/10/28 07:10:13;;;;;;;10.32;8.88;;;;;;;11.76;65.33;96229.19;5136637;27;20195;-68
2022/10/28 07:12:40;;;;;;;9.07;7.65;;;;;;;11.85;65.13;96226.44;5137307;27;20583;-68
2022/10/28 07:15:08;;;;;;;9.45;8.50;;;;;;;11.96;65.17;96230.44;5136683;27;20195;-68
2022/10/28 07:17:35;;;;;;;10.10;8.48;;;;;;;12.04;64.84;96227.59;5137403;27;20179;-68
2022/10/28 07:20:03;;;;;;;12.02;10.02;;;;;;;12.14;64.56;96229.19;5137298;27;20210;-68
2022/10/28 07:22:30;;;;;;;13.18;9.98;;;;;;;12.22;64.39;96233.03;5136443;27;20206;-68
2022/10/28 07:24:59;;;;;;;11.93;10.73;;;;;;;12.28;63.53;96234.47;5136652;27;20187;-68
2022/10/28 07:27:26;;;;;;;13.88;12.10;;;;;;;12.32;63.17;96229.09;5136632;27;20247;-68
2022/10/28 07:29:53;;;;;;;16.23;14.50;;;;;;;12.39;63.17;96226.59;5136529;27;20191;-68
2022/10/28 07:32:20;;;;;;;18.98;16.95;;;;;;;12.49;62.91;96227.00;5119406;27;20263;-68
2022/10/28 07:34:46;;;;;;;21.65;19.38;;;;;;;12.57;62.71;96230.84;5136418;27;20584;-68
2022/10/28 07:37:14;;;;;;;22.63;20.30;;;;;;;12.62;62.58;96227.06;5136041;27;20202;-68
2022/10/28 07:39:41;;;;;;;21.85;19.75;;;;;;;12.71;62.56;96228.63;5136833;27;20210;-68
2022/10/28 07:42:08;;;;;;;21.45;18.58;;;;;;;12.81;62.54;96232.91;5137029;27;20194;-68
2022/10/28 07:44:34;;;;;;;17.55;15.85;;;;;;;12.90;62.30;96230.09;5135780;27;20201;-68
2022/10/28 07:47:01;;;;;;;17.00;15.25;;;;;;;12.98;61.23;96230.00;5136153;27;20203;-68
2022/10/28 07:49:28;;;;;;;15.10;13.50;;;;;;;13.07;60.96;96229.09;5137087;27;20179;-68
2022/10/28 07:51:55;;;;;;;17.40;14.27;;;;;;;13.18;61.50;96220.03;5135886;27;20191;-68
2022/10/28 07:54:23;;;;;;;14.95;13.48;;;;;;;13.32;60.95;96222.50;5136786;27;20198;-68
2022/10/28 07:56:50;;;;;;;14.90;12.23;;;;;;;13.42;60.07;96219.31;5136768;27;20202;-69
2022/10/28 07:59:19;;;;;;;14.52;12.98;;;;;;;13.50;60.51;96212.03;5135663;27;20190;-68
2022/10/28 08:01:46;;;;;;;14.35;12.77;;;;;;;13.61;59.74;96212.41;5135754;27;20210;-68
2022/10/28 08:04:13;;;;;;;15.05;12.98;;;;;;;13.72;60.10;96214.41;5135326;27;20195;-69
2022/10/28 08:06:39;;;;;;;15.68;12.90;;;;;;;13.83;59.43;96219.47;5135881;27;20663;-68
2022/10/28 08:09:07;;;;;;;13.48;12.07;;;;;;;13.96;58.97;96218.31;5136617;27;20190;-68
2022/10/28 08:11:35;;;;;;;14.27;12.45;;;;;;;14.01;57.83;96220.06;5135788;27;20192;-68
2022/10/28 08:14:02;;;;;;;15.27;12.98;;;;;;;14.09;58.43;96222.72;5135516;27;20206;-68
2022/10/28 08:16:30;;;;;;;14.93;13.13;;;;;;;14.22;58.37;96223.50;5135497;27;20183;-68
2022/10/28 08:18:56;;;;;;;15.70;12.85;;;;;;;14.33;57.98;96224.66;5136224;27;20594;-68
2022/10/28 08:21:25;;;;;;;17.92;13.98;;;;;;;14.43;57.76;96223.38;5135412;27;20223;-68
2022/10/28 08:23:53;;;;;;;15.93;14.43;;;;;;;14.49;56.25;96223.94;5135034;27;20640;-68
2022/10/28 08:26:20;;;;;;;15.85;14.23;;;;;;;14.55;55.83;96217.81;5136252;27;20210;-68
2022/10/28 08:28:48;;;;;;;16.02;14.43;;;;;;;14.62;55.45;96222.78;5135925;27;20217;-68
2022/10/28 08:31:15;;;;;;;17.35;14.48;;;;;;;14.72;55.86;96224.28;5135888;27;20183;-68
2022/10/28 08:33:44;;;;;;;18.50;13.70;;;;;;;14.80;55.63;96221.34;5135352;27;20248;-68
2022/10/28 08:36:12;;;;;;;16.40;12.75;;;;;;;14.90;55.80;96226.41;5135965;27;20599;-68
2022/10/28 08:38:39;;;;;;;15.35;12.45;;;;;;;15.01;54.85;96218.38;5136052;27;20238;-68
2022/10/28 08:41:16;;;;;;;15.25;13.13;;;;;;;15.12;54.68;96222.25;5136050;27;20202;-68
2022/10/28 08:43:59;;;;;;;14.00;11.52;;;;;;;15.22;54.07;96218.16;5135595;28;20191;-68
2022/10/28 08:46:39;;;;;;;13.63;10.60;;;;;;;15.33;54.19;96218.47;5135404;28;20190;-69
2022/10/28 08:49:10;;;;;;;13.25;11.77;;;;;;;15.43;53.98;96220.69;5136135;27;20183;-68
2022/10/28 08:51:42;;;;;;;13.00;10.85;;;;;;;15.56;53.02;96207.53;5118315;28;20194;-68
2022/10/28 08:54:14;;;;;;;13.80;10.77;;;;;;;15.64;53.45;96210.13;5136100;27;20195;-68
2022/10/28 08:56:44;;;;;;;12.52;11.23;;;;;;;15.77;52.71;96207.31;5136105;27;20190;-68
2022/10/28 08:59:14;;;;;;;14.48;11.20;;;;;;;15.84;52.76;96208.31;5136804;27;20205;-68
2022/10/28 09:01:46;;;;;;;15.40;11.80;;;;;;;15.92;52.72;96205.69;5140032;27;20206;-68
2022/10/28 09:04:18;;;;;;;14.25;11.73;;;;;;;15.98;52.46;96207.84;5138966;27;20206;-68
2022/10/28 09:06:45;;;;;;;13.82;12.00;;;;;;;16.10;52.10;96195.81;5140035;27;20198;-68
2022/10/28 09:09:17;;;;;;;15.48;11.30;;;;;;;16.22;51.49;96194.88;5140222;27;20197;-68
2022/10/28 09:12:04;;;;;;;13.38;11.18;;;;;;;16.37;51.58;96191.25;5139268;27;20187;-68
2022/10/28 09:14:53;;;;;;;11.93;10.68;;;;;;;16.51;50.59;96191.56;5139825;27;20199;-68
2022/10/28 09:17:21;;;;;;;14.27;11.82;;;;;;;16.62;50.64;96186.25;5139444;27;20195;-68
2022/10/28 09:19:49;;;;;;;14.05;11.27;;;;;;;16.69;49.97;96183.59;5138923;27;20199;-68
2022/10/28 09:22:23;;;;;;;14.32;11.85;;;;;;;16.80;50.35;96187.47;5139735;27;20207;-68
2022/10/28 09:24:52;;;;;;;14.35;10.75;;;;;;;16.91;49.71;96179.31;5139527;27;20656;-68
2022/10/28 09:27:28;;;;;;;14.20;10.85;;;;;;;17.03;48.57;96170.00;5138795;27;20206;-67
2022/10/28 09:30:00;;;;;;;12.05;10.27;;;;;;;17.12;49.25;96175.34;5138870;27;20194;-67
2022/10/28 09:32:36;;;;;;;13.60;10.35;;;;;;;17.32;49.13;96169.38;5139664;27;20202;-68
2022/10/28 09:35:06;;;;;;;13.75;9.98;;;;;;;17.50;48.86;96161.34;5138361;27;20187;-67
2022/10/28 09:37:35;;;;;;;13.32;10.30;;;;;;;17.67;48.65;96160.03;5138967;27;20646;-68
2022/10/28 09:40:07;;;;;;;11.13;9.38;;;;;;;17.85;49.05;96159.56;5139105;27;20179;-68
2022/10/28 09:42:38;;;;;;;11.43;9.52;;;;;;;18.01;48.04;96160.22;5138923;27;20206;-71
2022/10/28 09:45:13;;;;;;;12.75;9.40;;;;;;;18.23;48.33;96147.41;5139171;27;20202;-68
2022/10/28 09:47:42;;;;;;;16.42;10.07;;;;;;;18.34;47.47;96140.00;5139416;27;20178;-68
2022/10/28 09:50:16;;;;;;;10.02;9.02;;;;;;;18.47;46.86;96140.53;5139170;27;20191;-68
2022/10/28 09:52:51;;;;;;;12.20;9.00;;;;;;;18.63;46.35;96134.78;5138327;27;20203;-68
2022/10/28 09:55:20;;;;;;;11.98;8.18;;;;;;;18.75;46.64;96121.38;5138821;27;20606;-68
2022/10/28 09:57:47;;;;;;;10.27;8.00;;;;;;;18.95;46.39;96124.00;5139189;27;20199;-68
2022/10/28 10:00:16;;;;;;;12.05;8.82;;;;;;;19.08;45.89;96122.56;5138998;27;20179;-68
2022/10/28 10:02:44;;;;;;;10.77;7.88;;;;;;;19.10;44.72;96125.81;5138269;27;20202;-68
2022/10/28 10:05:12;;;;;;;8.45;7.35;;;;;;;19.21;45.31;96118.31;5138721;27;20629;-68
2022/10/28 10:07:43;;;;;;;13.85;8.52;;;;;;;19.27;43.87;96117.97;5137985;27;20187;-67
2022/10/28 10:10:14;;;;;;;8.07;7.28;;;;;;;19.41;44.05;96120.91;5137521;27;20191;-67
2022/10/28 10:12:41;;;;;;;8.85;8.00;;;;;;;19.55;44.86;96121.03;5138030;27;20198;-67
2022/10/28 10:15:13;;;;;;;10.95;9.95;;;;;;;19.53;43.48;96112.22;5137940;27;20209;-68
2022/10/28 10:17:44;;;;;;;13.00;11.55;;;;;;;19.65;43.78;96111.19;5138253;27;20252;-67
2022/10/28 10:20:12;;;;;;;11.88;10.68;;;;;;;19.81;43.06;96099.69;5138639;27;20203;-68
2022/10/28 10:22:40;;;;;;;12.32;10.60;;;;;;;19.71;42.42;96102.00;5138555;27;20179;-67
2022/10/28 10:25:24;;;;;;;11.30;10.10;;;;;;;19.84;42.75;96099.72;5138670;27;20187;-67
2022/10/28 10:27:56;;;;;;;11.70;9.65;;;;;;;19.68;41.46;96086.03;5137893;27;20519;-70
2022/10/28 10:30:25;;;;;;;10.88;9.00;;;;;;;19.62;43.09;96100.72;5137658;27;20195;-70
2022/10/28 10:32:53;;;;;;;8.93;7.75;;;;;;;19.56;42.65;96096.66;5137927;27;20546;-70
2022/10/28 10:35:24;;;;;;;8.68;7.13;;;;;;;19.65;42.14;96095.19;5137854;27;20525;-70
2022/10/28 10:37:51;;;;;;;7.22;6.50;;;;;;;19.83;41.76;96086.94;5137071;27;20234;-69
2022/10/28 10:40:23;;;;;;;8.38;6.53;;;;;;;19.79;40.39;96083.31;5137467;27;20198;-70
2022/10/28 10:42:50;;;;;;;7.05;6.25;;;;;;;19.56;41.52;96086.28;5137126;27;20199;-70
2022/10/28 10:45:21;;;;;;;7.95;5.72;;;;;;;19.56;41.34;96091.06;5137234;27;20195;-70
2022/10/28 10:47:48;;;;;;;5.57;5.00;;;;;;;19.52;41.24;96081.84;5137060;27;20187;-70
2022/10/28 10:50:25;;;;;;;8.55;5.32;;;;;;;19.70;41.67;96075.22;5137186;27;20617;-69
2022/10/28 10:52:53;;;;;;;7.63;5.40;;;;;;;19.86;41.06;96074.13;5137000;27;20228;-70
2022/10/28 10:55:24;;;;;;;6.55;5.30;;;;;;;19.98;41.00;96068.25;5137395;27;20191;-69
2022/10/28 10:57:51;;;;;;;7.75;5.18;;;;;;;19.93;41.97;96068.59;5138127;27;20198;-69
2022/10/28 11:00:22;;;;;;;6.65;5.95;;;;;;;19.91;40.91;96062.59;5137998;27;20272;-70
2022/10/28 11:02:49;;;;;;;6.55;5.15;;;;;;;19.92;41.04;96064.19;5137615;27;20324;-71
2022/10/28 11:05:20;;;;;;;6.70;5.40;;;;;;;19.90;40.81;96064.59;5137078;27;20202;-70
2022/10/28 11:07:50;;;;;;;6.43;5.18;;;;;;;19.83;41.06;96058.16;5136911;27;20214;-70
2022/10/28 11:10:23;;;;;;;6.28;5.60;;;;;;;19.79;41.05;96055.31;5137837;27;20190;-70
2022/10/28 11:12:54;;;;;;;5.93;4.75;;;;;;;19.76;41.29;96058.09;5136692;27;20376;-70
2022/10/28 11:15:27;;;;;;;5.25;4.70;;;;;;;19.68;40.64;96046.00;5136529;27;20199;-70
2022/10/28 11:17:55;;;;;;;6.18;4.07;;;;;;;19.69;40.71;96045.63;5136880;27;20194;-69
2022/10/28 11:20:25;;;;;;;7.60;4.20;;;;;;;19.80;40.73;96047.72;5136560;27;20601;-69
2022/10/28 11:23:00;;;;;;;6.80;4.15;;;;;;;19.87;41.34;96039.38;5135985;27;20211;-70
2022/10/28 11:25:35;;;;;;;5.78;4.50;;;;;;;19.91;41.48;96034.59;5137126;27;20190;-70
2022/10/28 11:28:12;;;;;;;8.18;3.88;;;;;;;19.86;40.98;96035.78;5136855;27;20198;-72
2022/10/28 11:30:48;;;;;;;4.85;3.50;;;;;;;19.78;39.96;96036.91;5137858;27;20187;-71
2022/10/28 11:33:18;;;;;;;4.68;3.53;;;;;;;19.77;39.66;96029.69;5137790;27;20190;-71
2022/10/28 11:35:52;;;;;;;5.13;3.33;;;;;;;19.78;38.63;96036.09;5137573;27;20201;-71
2022/10/28 11:38:41;;;;;;;5.13;3.05;;;;;;;19.80;39.94;96028.94;5136284;27;20558;-69